This is the latest recevied weather packets stored in our database for station/object EB5AGF-13. If no packets are shown the sender has not sent any weather packets the latest 10 day(s).
| Time | Temp. | Humidity | Pressure | Rain* | Wind** | Luminosity | Snow |
|---|---|---|---|---|---|---|---|
| 1777821002 | 22.22° C | 71% | 1009.1 hPa | 0 mm | 1.79 m/s, 238° | 326 W/m² | - |
| 1777820698 | 22.78° C | 69% | 1009.5 hPa | 0 mm | 1.79 m/s, 270° | 372 W/m² | - |
| 1777820394 | 22.22° C | 70% | 1009.3 hPa | 0 mm | 1.79 m/s, 192° | 400 W/m² | - |
| 1777820090 | 21.67° C | 72% | 1009.3 hPa | 0 mm | 1.79 m/s, 215° | 383 W/m² | - |
| 1777819786 | 21.67° C | 72% | 1009.5 hPa | 0 mm | 1.34 m/s, 200° | 348 W/m² | - |
| 1777819482 | 22.22° C | 72% | 1009.5 hPa | 0 mm | 2.68 m/s, 187° | 136 W/m² | - |
| 1777819173 | 22.22° C | 74% | 1009.4 hPa | 0 mm | 1.34 m/s, 187° | 117 W/m² | - |
| 1777818872 | 22.22° C | 73% | 1009.6 hPa | 0 mm | 1.79 m/s, 124° | 114 W/m² | - |
| 1777818570 | 22.78° C | 71% | 1009.6 hPa | 0 mm | 2.68 m/s, 196° | 118 W/m² | - |
| 1777818266 | 22.78° C | 69% | 1009.7 hPa | 0 mm | 1.34 m/s, 175° | 118 W/m² | - |
| 1777817962 | 22.78° C | 70% | 1009.6 hPa | 0 mm | 2.24 m/s, 187° | 115 W/m² | - |
| 1777817658 | 22.22° C | 72% | 1009.7 hPa | 0 mm | 1.79 m/s, 207° | 118 W/m² | - |
| 1777817354 | 22.22° C | 72% | 1009.8 hPa | 0 mm | 1.34 m/s, 189° | 262 W/m² | - |
| 1777817050 | 22.22° C | 74% | 1009.7 hPa | 0 mm | 1.34 m/s, 142° | 500 W/m² | - |
| 1777816746 | 22.22° C | 72% | 1009.6 hPa | 0 mm | 2.68 m/s, 214° | 517 W/m² | - |
| 1777816442 | 22.78° C | 70% | 1009.9 hPa | 0 mm | 3.13 m/s, 211° | 523 W/m² | - |
| 1777816137 | 23.33° C | 69% | 1009.8 hPa | 0 mm | 2.24 m/s, 223° | 534 W/m² | - |
| 1777815834 | 22.22° C | 72% | 1010 hPa | 0 mm | 1.79 m/s, 204° | 546 W/m² | - |
| 1777815531 | 22.22° C | 72% | 1010 hPa | 0 mm | 1.79 m/s, 222° | 557 W/m² | - |
| 1777815226 | 22.22° C | 73% | 1010 hPa | 0 mm | 1.79 m/s, 190° | 556 W/m² | - |
| 1777814922 | 22.22° C | 73% | 1010.1 hPa | 0 mm | 3.13 m/s, 180° | 579 W/m² | - |
| 1777814618 | 22.78° C | 71% | 1010.3 hPa | 0 mm | 1.79 m/s, 206° | 580 W/m² | - |
| 1777814315 | 22.22° C | 71% | 1010.3 hPa | 0 mm | 0 m/s | 571 W/m² | - |
| 1777814012 | 23.33° C | 68% | 1010.4 hPa | 0 mm | 3.13 m/s, 195° | 576 W/m² | - |
| 1777813712 | 22.78° C | 70% | 1010.3 hPa | 0 mm | 0.89 m/s, 224° | 597 W/m² | - |
* Rain latest hour (hover to see other rain measurements)
** Current wind speed in m/s (hover to see current wind gust speed)